Weather observations for the past three days for
Elbow Lake Municipal Airport
Metric (Imperial)
Date Time (cdt) Wind (kph) Vis. (km) Weather Sky Cond. Temperature (ºC) Relative Humidity Wind Chill (°C) Heat Index (°C) Pressure Precipitation (cm)
Air Dwpt 6 hour altimeter (cm) sea level (mb) 1 hr 3 hr 6 hr
Max. Min.
07 23:15 S 7 16.09 Fair CLR 7.9 -3.8 44% 7 75.64 0.0
07 22:55 Calm 16.09 Fair CLR 9.1 -0.9 50% 75.64 0.0
07 22:35 S 6 16.09 Fair CLR 9.4 -4.1 39% 75.64 0.0
07 22:15 Calm 16.09 Fair CLR 9.4 -3.6 40% 75.67 0.0
07 21:55 Calm 16.09 Fair CLR 10 -8.1 27% 75.67 0.0
07 21:35 Calm 11.27 Fair CLR 10.3 -7.1 29% 75.64 0.0
07 21:15 Calm 11.27 Fair CLR 10.9 -5.2 32% 75.64 0.0
07 20:55 Calm 11.27 Fair CLR 11.5 -7.1 27% 75.64 0.0
07 20:35 Calm 16.09 Fair CLR 12.4 -6.5 26% 75.62 0.0
07 20:15 NW 7 16.09 Fair CLR 13.5 -7.1 23% 75.62 0.0
07 19:55 NW 13 16.09 Fair CLR 14.7 -7.7 21% 75.62 0.0
07 19:35 NW 13 16.09 Fair CLR 14.9 -6.9 22% 75.62 0.0
07 19:15 W 13 16.09 Fair CLR 15.1 -6.6 22% 75.62 0.0
07 18:55 W 15 G 26 16.09 Fair CLR 15.5 -6.6 16 11.6 21% 75.64 0.0
07 18:35 NW 17 16.09 Fair CLR 15.4 -7 21% 75.64 0.0
07 18:15 NW 19 G 30 16.09 Fair CLR 15.2 -6.7 22% 75.64 0.0
07 17:55 NW 26 G 39 16.09 Partly Cloudy SCT090 15.5 -7.4 20% 75.64 0.0
07 17:35 NW 17 G 26 16.09 Mostly Cloudy BKN090 15.6 -7 21% 75.67 0.0
07 17:15 NW 24 G 31 16.09 Partly Cloudy SCT090 16 -6.7 21% 75.69 0.0
07 16:55 NW 22 G 30 16.09 Partly Cloudy SCT090 15 -6.3 23% 75.69 0.0
07 16:35 W 11 16.09 Partly Cloudy SCT090 14 -6.8 23% 75.69 0.0
07 16:15 NW 19 G 28 16.09 Partly Cloudy SCT080 14.4 -6.4 23% 75.72 0.0
07 15:55 NW 22 G 30 16.09 Mostly Cloudy BKN080 15.5 -6.5 22% 75.72 0.0
07 15:35 W 17 G 33 16.09 Partly Cloudy SCT080 14.4 -5.9 24% 75.74 0.0
07 15:15 NW 17 G 35 16.09 Mostly Cloudy BKN080 13.8 -6.5 24% 75.74 0.0
07 14:55 W 28 G 44 16.09 Partly Cloudy SCT080 14.6 -7.1 22% 75.77 0.0
07 14:35 NW 22 G 33 16.09 Mostly Cloudy BKN080 14.3 -7.4 22% 75.77 0.0
07 14:15 NW 19 G 30 16.09 Partly Cloudy SCT080 13.5 -7.1 23% 75.79 0.0
07 13:55 NW 22 G 35 16.09 Partly Cloudy SCT080 13.3 -7 24% 75.79 0.0
07 13:35 NW 22 G 35 16.09 Partly Cloudy SCT070 SCT080 13.3 -6.4 25% 75.79 0.0
07 13:15 NW 19 G 30 16.09 Mostly Cloudy BKN070 12.3 -6 28% 75.82 0.0
07 12:55 W 13 16.09 Mostly Cloudy BKN070 12.5 -5.9 13.1 -0.8 27% 75.84 0.0
07 12:35 NW 9 G 26 16.09 Mostly Cloudy BKN070 BKN080 12 -6.2 28% 75.87 0.0
07 12:15 W 13 16.09 Overcast OVC070 12.2 -5.5 29% 75.87 0.0
07 11:55 W 13 16.09 Overcast OVC070 11.7 -6.4 28% 75.9 0.0
07 11:35 NW 13 16.09 Mostly Cloudy BKN070 10.7 -6.4 30% 75.9 0.0
07 11:15 W 15 16.09 Partly Cloudy SCT070 11.1 -5.6 31% 75.92 0.0
07 10:55 SW 13 16.09 Fair CLR 11.4 -5.1 31% 75.92 0.0
07 10:35 SW 15 16.09 Fair CLR 10.6 -5.9 31% 75.92 0.0
07 10:15 SW 17 16.09 Fair CLR 10.3 -4.7 35% 75.95 0.0
07 09:55 SW 13 16.09 Fair CLR 9.4 -3.7 40% 8 75.95 0.0
07 09:35 SW 13 16.09 Fair CLR 8.4 -3.5 43% 7 75.95 0.0
07 09:15 SW 13 16.09 Fair CLR 7.5 -3.1 47% 5 75.95 0.0
07 08:55 SW 13 16.09 Fair CLR 6.5 -3.5 49% 4 75.95 0.0
07 08:35 S 11 16.09 Fair CLR 5.4 -3.7 52% 3 75.92 0.0
07 08:15 S 9 16.09 Fair CLR 4 -3.6 58% 2 75.92 0.0
07 07:55 S 11 16.09 Fair CLR 3.2 -3.3 63% 1 75.95 0.0
07 07:35 S 9 16.09 Fair CLR 1.9 -3.4 68% -1 75.95 0.0
07 07:15 S 9 16.09 Fair CLR 0.7 -3.6 73% -2 75.92 0.0
07 06:55 S 9 16.09 Fair CLR -1 -4.8 0 -2.5 76% -4 75.92 0.0
07 06:35 S 11 16.09 Fair CLR -1.8 -5.6 76% -5 75.92 0.0
07 06:15 S 11 16.09 Fair CLR -2.3 -6.2 75% -6 75.92 0.0
07 05:55 S 11 16.09 Fair CLR -2.1 -5.7 77% -6 75.92 0.0
07 05:35 S 9 16.09 Fair CLR -1.6 -5.6 74% -5 75.95 0.0
07 05:15 S 7 16.09 Fair CLR -1.1 -5.4 73% -3 75.95 0.0
07 04:55 S 7 16.09 Fair CLR -0.7 -5.3 71% -3 75.95 0.0
07 04:15 S 9 16.09 Fair CLR -1.6 -6 72% -5 75.95 0.0
07 03:55 S 11 16.09 Fair CLR -0.9 -6.3 67% -4 75.95 0.0
07 03:35 S 11 16.09 Fair CLR -2.3 -6.6 73% -6 75.95 0.0
07 03:15 S 11 16.09 Fair CLR -1.6 -6.5 70% -5 75.97 0.0
07 02:55 S 11 16.09 Fair CLR -0.2 -5.9 66% -3 75.95 0.0
07 02:35 S 11 16.09 Fair CLR -1.1 -5.7 71% -5 75.97 0.0
07 02:15 S 15 16.09 Fair CLR -1.7 -6.3 71% -6 75.97 0.0
07 01:55 S 13 16.09 Fair CLR -2.1 -6.3 73% -6 76 0.0
07 01:35 S 13 16.09 Fair CLR -1.5 -6 72% -5 76 0.0
07 01:15 S 11 16.09 Fair CLR -0.9 -5.9 69% -4 76 0.0
07 00:55 S 9 16.09 Fair CLR 0.2 -5 6.1 0.2 68% -3 76.02 0.0
07 00:35 SE 7 16.09 Fair CLR 1.1 -4.5 67% -1 76.02 0.0
07 00:15 SE 7 16.09 Fair CLR 2.7 -2.9 67% 1 76.02 0.0
06 23:55 S 7 16.09 Fair CLR 1.5 -4 67% -0 76.07 0.0
06 23:35 S 7 16.09 Fair CLR 2.2 -3.2 68% 0 76.1 0.0
06 23:15 S 6 16.09 Fair CLR 1.9 -5.4 59% 76.1 0.0
06 22:55 S 6 16.09 Fair CLR 1.2 -6.5 57% 76.1 0.0
06 22:35 Calm 16.09 Fair CLR 2.2 -5.5 57% 76.1 0.0
06 22:15 Calm 16.09 Fair CLR 4 -5.9 49% 76.12 0.0
06 21:55 Calm 16.09 Mostly Cloudy BKN060 4.5 -5.2 50% 76.12 0.0
06 21:35 Calm 16.09 Overcast OVC060 5 -5 49% 76.15 0.0
06 21:15 Calm 16.09 Overcast OVC060 5.1 -5 48% 76.12 0.0
06 20:55 Calm 16.09 Overcast OVC060 5.5 -5.7 45% 76.12 0.0
06 20:35 N 6 16.09 Overcast OVC060 5.5 -5 47% 76.12 0.0
06 20:15 N 6 16.09 Overcast OVC060 5.8 -4.9 47% 76.12 0.0
06 19:55 N 7 16.09 Overcast OVC060 6 -5.5 44% 5 76.12 0.0
06 19:35 NW 7 16.09 Overcast OVC060 6 -5.7 43% 5 76.12 0.0
06 19:15 NW 15 16.09 Overcast OVC060 6 -6.1 42% 3 76.12 0.0
06 18:55 NW 11 16.09 Overcast OVC060 6 -6.3 6.5 4.7 41% 4 76.15 0.0
06 18:35 NW 13 16.09 Overcast OVC060 6.1 -6.2 41% 4 76.17 0.0
06 18:15 NW 11 16.09 Overcast OVC060 6 -6.3 41% 4 76.17 0.0
06 17:55 W 9 16.09 Overcast OVC060 6.1 -6.3 41% 4 76.17 0.0
06 17:35 NW 15 16.09 Overcast OVC060 6.1 -6 42% 3 76.17 0.0
06 17:15 NW 13 16.09 Overcast OVC050 6.1 -6 42% 4 76.17 0.0
06 16:55 NW 11 16.09 Overcast OVC050 6.2 -5.8 42% 4 76.17 0.0
06 16:35 W 9 16.09 Overcast OVC060 6.2 -5.9 42% 5 76.2 0.0
06 16:15 NW 7 16.09 Overcast SCT050 OVC060 6.1 -5.6 43% 5 76.23 0.0
06 15:55 NW 20 G 28 16.09 Overcast OVC050 6 -5.7 43% 3 76.23 0.0
06 15:35 NW 17 16.09 Overcast OVC048 6 -5.9 43% 3 76.23 0.0
06 15:15 NW 15 16.09 Overcast OVC048 5.9 -6.1 42% 3 76.25 0.0
06 14:55 NW 17 16.09 Overcast OVC044 5.6 -5.8 44% 3 76.25 0.0
06 14:35 W 13 16.09 Overcast OVC044 5.4 -6 44% 3 76.28 0.0
06 14:15 W 20 G 30 16.09 Overcast OVC044 5.5 -5.9 44% 2 76.28 0.0
06 13:55 W 13 G 28 16.09 Overcast OVC046 5.5 -5.9 44% 3 76.28 0.0
06 13:35 NW 15 16.09 Overcast OVC044 5 -6.3 44% 2 76.28 0.0
06 13:15 W 13 16.09 Overcast OVC044 4.8 -5.9 46% 2 76.3 0.0
06 12:55 W 15 G 30 16.09 Overcast OVC044 4.7 -6.1 4.7 1.8 46% 2 76.3 0.0
06 12:35 NW 20 16.09 Overcast OVC044 4.6 -5.7 48% 1 76.33 0.0
06 12:15 W 15 16.09 Overcast OVC042 4.5 -5.9 47% 2 76.33 0.0
06 11:55 NW 17 16.09 Overcast OVC040 4.3 -6.2 47% 1 76.33 0.0
06 11:35 NW 13 G 19 16.09 Overcast OVC040 4 -6.1 48% 1 76.33 0.0
06 11:15 NW 19 G 30 16.09 Overcast OVC040 3.5 -5.6 52% -0 76.35 0.0
06 10:55 NW 22 16.09 Overcast OVC040 3.4 -6.1 50% -1 76.35 0.0
06 10:35 NW 17 G 26 16.09 Overcast OVC040 3.1 -5.8 52% -0 76.35 0.0
06 10:15 N 19 16.09 Overcast OVC042 3.1 -5.6 53% -1 76.35 0.0
06 09:55 NW 19 16.09 Overcast OVC042 2.9 -5.9 53% -1 76.35 0.0
06 09:35 NW 17 16.09 Overcast OVC042 2.6 -5.4 56% -1 76.35 0.0
06 09:15 N 15 16.09 Overcast OVC042 2.5 -5.6 56% -1 76.35 0.0
06 08:55 N 15 16.09 Overcast OVC042 2.5 -5.2 57% -1 76.33 0.0
06 08:35 NW 13 16.09 Overcast OVC042 2.3 -5 59% -1 76.33 0.0
06 08:15 N 11 16.09 Overcast OVC042 2.2 -4.8 60% -1 76.3 0.0
06 07:55 NW 13 16.09 Overcast OVC042 2.2 -4.5 62% -1 76.3 0.0
06 07:35 NW 15 16.09 Overcast OVC042 2.1 -4.8 61% -1 76.28 0.0
06 07:15 NW 15 16.09 Overcast OVC044 2 -4.9 61% -2 76.28 0.0
06 06:55 NW 11 16.09 Overcast OVC044 1.8 -4.6 3.6 1.8 63% -1 76.25 0.0
06 06:35 N 17 16.09 Overcast OVC044 2.2 -3.8 65% -2 76.23 0.0
06 06:15 N 15 16.09 Overcast OVC044 2.3 -3.6 65% -1 76.23 0.0
06 05:55 N 13 16.09 Overcast OVC046 2.3 -3.5 66% -1 76.23 0.0
06 05:35 NW 9 16.09 Overcast OVC048 2.2 -3.8 65% -0 76.2 0.0
06 05:15 NW 7 16.09 Overcast OVC050 2.1 -3.9 65% 0 76.2 0.0
06 04:55 NW 11 16.09 Overcast OVC048 2.2 -4.4 62% -1 76.2 0.0
06 04:35 NW 11 16.09 Overcast OVC048 2.2 -4.2 63% -1 76.2 0.0
06 04:15 NW 11 16.09 Overcast OVC048 2.5 -4.5 60% -0 76.17 0.0
06 03:55 N 9 16.09 Overcast OVC048 2.8 -5 57% 1 76.17 0.0
06 03:35 N 7 16.09 Overcast OVC050 3 -4.9 57% 1 76.17 0.0
06 03:15 N 11 16.09 Overcast OVC050 3 -4.8 57% 0 76.17 0.0
06 02:55 N 9 16.09 Overcast OVC050 3 -4.9 57% 1 76.17 0.0
06 02:35 N 9 16.09 Overcast OVC050 3 -5 56% 1 76.17 0.0
06 02:15 N 9 16.09 Overcast OVC050 3.1 -4.7 57% 1 76.17 0.0
06 01:55 N 11 16.09 Overcast OVC050 3.3 -5 55% 1 76.17 0.0
06 01:35 N 9 16.09 Overcast OVC050 3.5 -4.5 56% 1 76.17 0.0
06 01:15 N 7 16.09 Overcast OVC050 3.5 -4.7 55% 2 76.17 0.0
06 00:55 N 9 16.09 Overcast OVC050 3.6 -4.8 6.2 3.6 55% 1 76.17 0.0
06 00:35 N 9 16.09 Overcast OVC050 3.7 -4.8 54% 2 76.15 0.0
06 00:15 N 11 16.09 Overcast OVC060 3.8 -5 53% 1 76.15 0.0
05 23:55 N 15 16.09 Overcast OVC060 4 -5 52% 1 76.15 0.0
05 23:35 N 15 16.09 Overcast OVC060 4 -5.4 51% 1 76.12 0.0
05 23:15 N 11 16.09 Overcast OVC060 4 -5.1 52% 2 76.12 0.0
05 22:55 N 9 16.09 Overcast OVC060 4 -5.3 51% 2 76.12 0.0
05 22:35 N 11 16.09 Overcast OVC060 4.1 -5.3 51% 2 76.1 0.0
05 22:15 N 13 16.09 Overcast OVC060 4.6 -5.1 50% 2 76.1 0.0
05 21:55 N 13 16.09 Overcast OVC060 4.8 -4.4 52% 2 76.1 0.0
05 21:35 NW 13 16.09 Overcast OVC060 4.4 -5.5 49% 2 76.07 0.0
05 21:15 NW 19 G 26 16.09 Overcast OVC060 4.8 -5 49% 1 76.07 0.0
05 20:55 NW 17 G 28 16.09 Mostly Cloudy BKN060 5.1 -4.5 50% 2 76.05 0.0
05 20:35 N 22 16.09 Fair CLR 5.1 -4.9 49% 1 76.02 0.0
05 20:15 N 19 16.09 Partly Cloudy SCT060 5.5 -5.2 46% 2 76.02 0.0
05 19:55 N 19 16.09 Fair CLR 5.6 -4.9 47% 2 76 0.0
05 19:35 N 19 16.09 Mostly Cloudy BKN060 5.5 -5.7 45% 2 76 0.0
05 19:15 N 17 G 26 16.09 Overcast OVC060 6 -5 46% 3 76 0.0
05 18:55 NW 28 G 37 16.09 Overcast OVC050 6.1 -5.1 7.6 5.9 45% 2 76 0.0
05 18:35 NW 24 G 31 16.09 Overcast OVC050 6.1 -5.1 45% 2 76 0.0
05 18:15 NW 26 G 37 16.09 Overcast OVC050 6.2 -5.1 45% 2 76 0.0
05 17:55 NW 22 G 37 16.09 Overcast OVC050 6.1 -5 45% 3 76 0.0
05 17:35 NW 26 G 35 16.09 Overcast OVC050 6.1 -5.4 44% 2 76 0.0
05 17:15 NW 22 G 35 16.09 Overcast OVC050 6 -5.2 45% 2 76 0.0
05 16:55 N 24 G 39 16.09 Overcast OVC050 6.4 -4.7 45% 3 75.97 0.0
05 16:35 NW 22 G 33 16.09 Overcast OVC050 6.2 -5.5 43% 3 75.97 0.0
05 16:15 NW 26 G 35 16.09 Overcast OVC050 6.3 -6.2 41% 2 76 0.0
05 15:55 NW 26 G 33 16.09 Overcast OVC050 6.5 -5.8 41% 3 76 0.0
05 15:35 NW 28 G 46 16.09 Overcast OVC050 6.5 -5.1 44% 3 76 0.0
05 15:15 NW 31 G 41 16.09 Overcast OVC050 6.8 -5.2 42% 3 75.97 0.0
05 14:55 NW 26 G 44 16.09 Overcast OVC050 6.9 -5 43% 3 75.97 0.0
05 14:35 N 30 G 41 16.09 Overcast OVC050 6.5 -5.6 42% 2 75.97 0.0
05 14:15 NW 20 G 37 16.09 Overcast SCT050 OVC055 6.5 -5.4 43% 3 75.95 0.0
05 13:55 N 26 16.09 Overcast SCT045 OVC050 6.5 -4.8 45% 3 75.95 0.0
05 13:35 NW 22 G 39 16.09 Overcast SCT045 OVC050 6.1 -4.6 47% 3 75.95 0.0
05 13:15 N 28 G 39 16.09 Overcast OVC050 6.5 -4.9 44% 3 75.92 0.0
05 12:55 N 26 G 33 16.09 Overcast OVC050 6.6 -4.7 7.3 0.9 45% 3 75.92 0.0
05 12:35 NW 28 G 43 16.09 Overcast OVC050 6.7 -5 43% 3 75.92 0.0
05 12:15 NW 24 G 43 16.09 Overcast OVC050 6.3 -5.5 43% 3 75.9 0.0
05 11:55 NW 22 G 41 16.09 Overcast OVC050 6.7 -5.4 42% 3 75.9 0.0
05 11:35 NW 30 G 44 16.09 Mostly Cloudy BKN050 6.5 -5.6 42% 2 75.87 0.0
05 11:15 NW 26 G 43 16.09 Mostly Cloudy BKN050 6.5 -6 41% 3 75.87 0.0
05 10:55 NW 26 G 31 16.09 Mostly Cloudy BKN046 BKN050 6.5 -4.8 45% 3 75.84 0.0
05 10:35 NW 17 G 33 16.09 Mostly Cloudy SCT044 SCT050 BKN100 6.8 -4.7 44% 4 75.87 0.0
05 10:15 NW 19 16.09 Overcast OVC100 6.4 -5 44% 3 75.84 0.0
05 09:55 W 13 G 30 16.09 Overcast OVC100 6 -4.5 47% 4 75.84 0.0
05 09:35 NW 13 16.09 Mostly Cloudy BKN100 5.4 -4.9 48% 3 75.84 0.0
05 09:15 NW 9 16.09 Fair CLR 4.4 -5.7 48% 2 75.84 0.0
05 08:55 NW 6 16.09 Fair CLR 3.8 -5.6 51% 75.84 0.0
05 08:35 NW 7 16.09 Fair CLR 3.1 -4.9 56% 1 75.82 0.0
05 08:15 NW 9 16.09 Fair CLR 2.6 -4.6 59% 0 75.82 0.0
05 07:55 NW 9 16.09 Partly Cloudy SCT048 2.2 -3.6 66% -0 75.79 0.0
05 07:35 N 13 16.09 Partly Cloudy SCT050 SCT085 1.8 -3.3 69% -1 75.79 0.0
05 07:15 NW 7 16.09 Partly Cloudy SCT085 1.5 -3.9 68% -0 75.77 0.0
05 06:55 NW 6 16.09 Fair CLR 0.8 -4.1 5.1 -1 70% 75.74 0.0
05 06:35 NW 6 16.09 Fair CLR -0.6 -4.3 76% 75.74 0.0
05 06:15 Calm 16.09 Fair CLR -0.6 -4.3 76% 75.72 0.0
05 05:55 NW 6 16.09 Fair CLR 0 -4.5 72% 75.72 0.0
05 05:35 NW 9 16.09 Fair CLR 0.4 -3.9 73% -2 75.72 0.0
05 05:15 NW 7 16.09 Partly Cloudy SCT085 1.8 -4.1 65% -0 75.72 0.0
05 04:55 N 7 16.09 Mostly Cloudy BKN085 2.5 -5 58% 1 75.72 0.0
05 04:35 N 6 16.09 Overcast OVC085 2.7 -3.9 62% 75.72 0.0
05 04:15 N 6 16.09 Overcast OVC085 3 -3.6 62% 75.72 0.0
05 03:55 N 7 16.09 Overcast SCT060 OVC085 3.3 -3.2 63% 2 75.69 0.0
05 03:35 N 9 16.09 Overcast SCT060 OVC085 3.5 -2.6 65% 1 75.69 0.0
05 03:15 N 11 16.09 Overcast OVC085 3.7 -2.2 66% 1 75.69 0.0
05 02:55 N 15 16.09 Overcast OVC085 4 -1.6 67% 1 75.67 0.0
05 02:35 N 13 16.09 Overcast OVC085 4.1 -1.1 69% 1 75.67 0.0
05 02:15 NW 11 16.09 Overcast OVC085 4 -1.8 66% 2 75.67 0.0
05 01:55 NW 11 16.09 Overcast SCT070 OVC085 4.3 -1.9 64% 2 75.67 0.0
05 01:35 NW 11 16.09 Overcast SCT080 OVC085 4.6 -1.8 64% 2 75.67 0.0
05 01:15 NW 13 16.09 Overcast OVC090 5 -1.5 63% 2 75.64 0.0
05 00:55 N 17 16.09 Overcast SCT065 OVC090 5 -2.3 9.3 5 60% 2 75.64 0.0
05 00:35 N 15 16.09 Overcast OVC090 5.2 -1.7 61% 2 75.62 0.0
05 00:15 N 13 16.09 Overcast OVC090 5.3 -2.1 59% 3 75.62 0.0
04 23:55 N 15 16.09 Overcast OVC090 5.5 -1.6 61% 3 75.62 0.0
04 23:35 N 11 16.09 Overcast OVC090 5.2 -1.8 61% 3 75.59 0.0
Date Time (cdt) Wind (kph) Vis. (km) Weather Sky Cond. Air Dwpt Max. Min. Relative Humidity Wind Chill (°C) Heat Index (°C) altimeter (cm) sea level (mb) 1 hr 3 hr 6 hr
6 hour
Temperature (ºC) Pressure Precipitation (cm)